sensor_id;sensor_type;location;lat;lon;timestamp;temperature;humidity
37456;DHT22;23316;50.718;7.328;2023-02-28T00:00:13;4.40;46.00
37456;DHT22;23316;50.718;7.328;2023-02-28T00:02:41;4.40;45.50
37456;DHT22;23316;50.718;7.328;2023-02-28T00:05:12;4.40;45.60
37456;DHT22;23316;50.718;7.328;2023-02-28T00:07:41;4.40;45.60
37456;DHT22;23316;50.718;7.328;2023-02-28T00:10:10;4.40;45.60
37456;DHT22;23316;50.718;7.328;2023-02-28T00:12:38;4.40;45.70
37456;DHT22;23316;50.718;7.328;2023-02-28T00:15:07;4.40;45.70
37456;DHT22;23316;50.718;7.328;2023-02-28T00:17:35;4.30;45.70
37456;DHT22;23316;50.718;7.328;2023-02-28T00:20:03;4.40;45.80
37456;DHT22;23316;50.718;7.328;2023-02-28T00:22:34;4.40;45.90
37456;DHT22;23316;50.718;7.328;2023-02-28T00:25:03;4.30;45.80
37456;DHT22;23316;50.718;7.328;2023-02-28T00:27:30;4.30;45.90
37456;DHT22;23316;50.718;7.328;2023-02-28T00:29:57;4.30;45.90
37456;DHT22;23316;50.718;7.328;2023-02-28T00:32:24;4.30;45.90
37456;DHT22;23316;50.718;7.328;2023-02-28T00:34:52;4.30;46.00
37456;DHT22;23316;50.718;7.328;2023-02-28T00:37:19;4.30;46.00
37456;DHT22;23316;50.718;7.328;2023-02-28T00:39:46;4.30;46.00
37456;DHT22;23316;50.718;7.328;2023-02-28T00:42:15;4.30;46.10
37456;DHT22;23316;50.718;7.328;2023-02-28T00:44:42;4.20;46.10
37456;DHT22;23316;50.718;7.328;2023-02-28T00:47:09;4.20;46.10
37456;DHT22;23316;50.718;7.328;2023-02-28T00:49:36;4.20;46.10
37456;DHT22;23316;50.718;7.328;2023-02-28T00:52:04;4.20;46.10
37456;DHT22;23316;50.718;7.328;2023-02-28T00:54:31;4.20;46.20
37456;DHT22;23316;50.718;7.328;2023-02-28T00:56:58;4.20;46.20
37456;DHT22;23316;50.718;7.328;2023-02-28T00:59:27;4.20;46.20
37456;DHT22;23316;50.718;7.328;2023-02-28T01:01:54;4.20;46.30
37456;DHT22;23316;50.718;7.328;2023-02-28T01:04:21;4.10;46.20
37456;DHT22;23316;50.718;7.328;2023-02-28T01:06:48;4.10;46.20
37456;DHT22;23316;50.718;7.328;2023-02-28T01:09:16;4.10;46.30
37456;DHT22;23316;50.718;7.328;2023-02-28T01:11:43;4.10;46.40
37456;DHT22;23316;50.718;7.328;2023-02-28T01:14:12;4.10;46.40
37456;DHT22;23316;50.718;7.328;2023-02-28T01:16:41;4.10;46.40
37456;DHT22;23316;50.718;7.328;2023-02-28T01:19:09;4.10;46.40
37456;DHT22;23316;50.718;7.328;2023-02-28T01:21:36;4.10;46.40
37456;DHT22;23316;50.718;7.328;2023-02-28T01:24:04;4.10;46.50
37456;DHT22;23316;50.718;7.328;2023-02-28T01:26:31;4.10;46.50
37456;DHT22;23316;50.718;7.328;2023-02-28T01:28:59;4.00;46.50
37456;DHT22;23316;50.718;7.328;2023-02-28T01:31:26;4.00;46.50
37456;DHT22;23316;50.718;7.328;2023-02-28T01:33:54;4.00;46.50
37456;DHT22;23316;50.718;7.328;2023-02-28T01:36:23;4.00;46.50
37456;DHT22;23316;50.718;7.328;2023-02-28T01:38:50;4.00;46.50
37456;DHT22;23316;50.718;7.328;2023-02-28T01:41:19;4.00;46.50
37456;DHT22;23316;50.718;7.328;2023-02-28T01:43:59;4.00;46.60
37456;DHT22;23316;50.718;7.328;2023-02-28T01:46:29;4.00;46.60
37456;DHT22;23316;50.718;7.328;2023-02-28T01:49:03;4.00;46.60
37456;DHT22;23316;50.718;7.328;2023-02-28T01:51:37;4.00;46.70
37456;DHT22;23316;50.718;7.328;2023-02-28T01:54:08;4.00;46.70
37456;DHT22;23316;50.718;7.328;2023-02-28T01:56:43;4.00;46.60
37456;DHT22;23316;50.718;7.328;2023-02-28T01:59:14;4.00;46.70
37456;DHT22;23316;50.718;7.328;2023-02-28T02:01:42;4.00;46.70
37456;DHT22;23316;50.718;7.328;2023-02-28T02:04:11;4.00;46.70
37456;DHT22;23316;50.718;7.328;2023-02-28T02:06:42;4.00;46.80
37456;DHT22;23316;50.718;7.328;2023-02-28T02:09:10;4.00;46.80
37456;DHT22;23316;50.718;7.328;2023-02-28T02:11:39;4.00;46.80
37456;DHT22;23316;50.718;7.328;2023-02-28T02:14:24;3.90;46.70
37456;DHT22;23316;50.718;7.328;2023-02-28T02:17:03;3.90;46.80
37456;DHT22;23316;50.718;7.328;2023-02-28T02:25:43;3.90;46.70
37456;DHT22;23316;50.718;7.328;2023-02-28T02:31:24;3.90;46.80
37456;DHT22;23316;50.718;7.328;2023-02-28T02:34:07;3.80;46.80
37456;DHT22;23316;50.718;7.328;2023-02-28T02:36:39;3.80;46.90
37456;DHT22;23316;50.718;7.328;2023-02-28T02:39:13;3.80;46.70
37456;DHT22;23316;50.718;7.328;2023-02-28T02:41:47;3.80;46.80
37456;DHT22;23316;50.718;7.328;2023-02-28T02:44:18;3.70;46.90
37456;DHT22;23316;50.718;7.328;2023-02-28T02:46:48;3.80;46.90
37456;DHT22;23316;50.718;7.328;2023-02-28T02:49:21;3.70;46.80
37456;DHT22;23316;50.718;7.328;2023-02-28T02:51:52;3.70;46.90
37456;DHT22;23316;50.718;7.328;2023-02-28T02:54:22;3.70;47.00
37456;DHT22;23316;50.718;7.328;2023-02-28T02:56:56;3.70;47.50
37456;DHT22;23316;50.718;7.328;2023-02-28T02:59:26;3.60;47.00
37456;DHT22;23316;50.718;7.328;2023-02-28T03:01:57;3.60;47.00
37456;DHT22;23316;50.718;7.328;2023-02-28T03:04:31;3.60;47.10
37456;DHT22;23316;50.718;7.328;2023-02-28T03:07:00;3.60;47.00
37456;DHT22;23316;50.718;7.328;2023-02-28T03:09:27;3.60;47.10
37456;DHT22;23316;50.718;7.328;2023-02-28T03:11:55;3.50;47.10
37456;DHT22;23316;50.718;7.328;2023-02-28T03:14:30;3.50;47.10
37456;DHT22;23316;50.718;7.328;2023-02-28T03:17:18;3.50;47.10
37456;DHT22;23316;50.718;7.328;2023-02-28T03:19:53;3.50;47.10
37456;DHT22;23316;50.718;7.328;2023-02-28T03:22:39;3.50;47.10
37456;DHT22;23316;50.718;7.328;2023-02-28T03:25:14;3.40;47.10
37456;DHT22;23316;50.718;7.328;2023-02-28T03:27:49;3.40;47.10
37456;DHT22;23316;50.718;7.328;2023-02-28T03:30:26;3.40;47.10
37456;DHT22;23316;50.718;7.328;2023-02-28T03:32:58;3.40;47.20
37456;DHT22;23316;50.718;7.328;2023-02-28T03:35:32;3.30;47.20
37456;DHT22;23316;50.718;7.328;2023-02-28T03:38:05;3.30;47.20
37456;DHT22;23316;50.718;7.328;2023-02-28T03:40:36;3.30;47.30
37456;DHT22;23316;50.718;7.328;2023-02-28T03:43:10;3.30;47.30
37456;DHT22;23316;50.718;7.328;2023-02-28T03:45:39;3.20;47.30
37456;DHT22;23316;50.718;7.328;2023-02-28T03:48:11;3.20;47.40
37456;DHT22;23316;50.718;7.328;2023-02-28T03:50:43;3.20;47.40
37456;DHT22;23316;50.718;7.328;2023-02-28T03:53:15;3.20;47.40
37456;DHT22;23316;50.718;7.328;2023-02-28T03:55:45;3.20;47.40
37456;DHT22;23316;50.718;7.328;2023-02-28T03:58:19;3.20;47.40
37456;DHT22;23316;50.718;7.328;2023-02-28T04:00:52;3.20;47.40
37456;DHT22;23316;50.718;7.328;2023-02-28T04:03:21;3.10;47.40
37456;DHT22;23316;50.718;7.328;2023-02-28T04:05:52;3.10;47.40
37456;DHT22;23316;50.718;7.328;2023-02-28T04:08:21;3.10;47.40
37456;DHT22;23316;50.718;7.328;2023-02-28T04:10:54;3.10;47.40
37456;DHT22;23316;50.718;7.328;2023-02-28T04:13:23;3.10;47.50
37456;DHT22;23316;50.718;7.328;2023-02-28T04:15:50;3.10;47.40
37456;DHT22;23316;50.718;7.328;2023-02-28T04:18:17;3.10;47.50
37456;DHT22;23316;50.718;7.328;2023-02-28T04:20:44;3.10;47.50
37456;DHT22;23316;50.718;7.328;2023-02-28T04:23:13;3.10;47.60
37456;DHT22;23316;50.718;7.328;2023-02-28T04:25:40;3.00;47.50
37456;DHT22;23316;50.718;7.328;2023-02-28T04:28:07;3.00;47.50
37456;DHT22;23316;50.718;7.328;2023-02-28T04:30:35;3.00;47.50
37456;DHT22;23316;50.718;7.328;2023-02-28T04:33:04;3.00;47.50
37456;DHT22;23316;50.718;7.328;2023-02-28T04:35:31;3.10;47.50
37456;DHT22;23316;50.718;7.328;2023-02-28T04:37:58;3.00;47.50
37456;DHT22;23316;50.718;7.328;2023-02-28T04:40:27;3.00;47.50
37456;DHT22;23316;50.718;7.328;2023-02-28T04:42:54;3.00;47.50
37456;DHT22;23316;50.718;7.328;2023-02-28T04:45:21;3.00;47.40
37456;DHT22;23316;50.718;7.328;2023-02-28T04:47:48;3.00;47.40
37456;DHT22;23316;50.718;7.328;2023-02-28T04:50:16;3.00;47.40
37456;DHT22;23316;50.718;7.328;2023-02-28T04:52:43;3.00;47.80
37456;DHT22;23316;50.718;7.328;2023-02-28T04:55:10;3.00;47.40
37456;DHT22;23316;50.718;7.328;2023-02-28T04:57:39;3.00;47.30
37456;DHT22;23316;50.718;7.328;2023-02-28T05:00:09;3.00;47.30
37456;DHT22;23316;50.718;7.328;2023-02-28T05:02:37;3.00;47.30
37456;DHT22;23316;50.718;7.328;2023-02-28T05:05:05;3.00;47.30
37456;DHT22;23316;50.718;7.328;2023-02-28T05:07:33;3.00;47.30
37456;DHT22;23316;50.718;7.328;2023-02-28T05:10:00;3.00;47.30
37456;DHT22;23316;50.718;7.328;2023-02-28T05:12:27;2.90;47.20
37456;DHT22;23316;50.718;7.328;2023-02-28T05:14:56;2.90;47.20
37456;DHT22;23316;50.718;7.328;2023-02-28T05:17:23;2.90;47.20
37456;DHT22;23316;50.718;7.328;2023-02-28T05:19:50;2.90;47.20
37456;DHT22;23316;50.718;7.328;2023-02-28T05:22:17;2.90;47.20
37456;DHT22;23316;50.718;7.328;2023-02-28T05:24:45;2.90;47.10
37456;DHT22;23316;50.718;7.328;2023-02-28T05:27:12;2.90;47.10
37456;DHT22;23316;50.718;7.328;2023-02-28T05:29:39;2.90;47.10
37456;DHT22;23316;50.718;7.328;2023-02-28T05:32:11;2.90;47.10
37456;DHT22;23316;50.718;7.328;2023-02-28T05:34:39;2.90;47.10
37456;DHT22;23316;50.718;7.328;2023-02-28T05:37:08;2.80;47.00
37456;DHT22;23316;50.718;7.328;2023-02-28T05:39:37;2.80;47.00
37456;DHT22;23316;50.718;7.328;2023-02-28T05:42:05;2.80;47.00
37456;DHT22;23316;50.718;7.328;2023-02-28T05:44:32;2.80;47.00
37456;DHT22;23316;50.718;7.328;2023-02-28T05:46:59;2.80;47.00
37456;DHT22;23316;50.718;7.328;2023-02-28T05:49:28;2.80;47.00
37456;DHT22;23316;50.718;7.328;2023-02-28T05:51:55;2.80;47.00
37456;DHT22;23316;50.718;7.328;2023-02-28T05:54:23;2.80;47.00
37456;DHT22;23316;50.718;7.328;2023-02-28T05:56:50;2.80;46.90
37456;DHT22;23316;50.718;7.328;2023-02-28T05:59:17;2.80;47.00
37456;DHT22;23316;50.718;7.328;2023-02-28T06:01:45;2.80;46.90
37456;DHT22;23316;50.718;7.328;2023-02-28T06:04:16;2.80;46.90
37456;DHT22;23316;50.718;7.328;2023-02-28T06:06:47;2.80;46.90
37456;DHT22;23316;50.718;7.328;2023-02-28T06:09:14;2.80;46.90
37456;DHT22;23316;50.718;7.328;2023-02-28T06:11:42;2.80;46.80
37456;DHT22;23316;50.718;7.328;2023-02-28T06:14:14;2.80;46.80
37456;DHT22;23316;50.718;7.328;2023-02-28T06:16:41;2.80;46.80
37456;DHT22;23316;50.718;7.328;2023-02-28T06:19:09;2.80;46.80
37456;DHT22;23316;50.718;7.328;2023-02-28T06:21:36;2.80;46.80
37456;DHT22;23316;50.718;7.328;2023-02-28T06:24:06;2.80;46.70
37456;DHT22;23316;50.718;7.328;2023-02-28T06:26:33;2.80;46.80
37456;DHT22;23316;50.718;7.328;2023-02-28T06:29:00;2.80;46.80
37456;DHT22;23316;50.718;7.328;2023-02-28T06:31:28;2.80;46.80
37456;DHT22;23316;50.718;7.328;2023-02-28T06:33:56;2.80;46.80
37456;DHT22;23316;50.718;7.328;2023-02-28T06:36:23;2.80;46.80
37456;DHT22;23316;50.718;7.328;2023-02-28T06:38:50;2.80;46.70
37456;DHT22;23316;50.718;7.328;2023-02-28T06:41:22;2.80;46.80
37456;DHT22;23316;50.718;7.328;2023-02-28T06:43:50;2.80;46.80
37456;DHT22;23316;50.718;7.328;2023-02-28T06:46:17;2.80;46.80
37456;DHT22;23316;50.718;7.328;2023-02-28T06:48:45;2.80;46.80
37456;DHT22;23316;50.718;7.328;2023-02-28T06:51:14;2.80;46.80
37456;DHT22;23316;50.718;7.328;2023-02-28T06:53:42;2.80;46.80
37456;DHT22;23316;50.718;7.328;2023-02-28T06:56:12;2.80;46.80
37456;DHT22;23316;50.718;7.328;2023-02-28T07:02:23;2.80;46.80
37456;DHT22;23316;50.718;7.328;2023-02-28T07:04:51;2.80;46.80
37456;DHT22;23316;50.718;7.328;2023-02-28T07:07:19;2.80;46.80
37456;DHT22;23316;50.718;7.328;2023-02-28T07:09:47;2.80;46.90
37456;DHT22;23316;50.718;7.328;2023-02-28T07:12:14;2.80;46.90
37456;DHT22;23316;50.718;7.328;2023-02-28T07:14:41;2.80;46.90
37456;DHT22;23316;50.718;7.328;2023-02-28T07:17:09;2.80;46.90
37456;DHT22;23316;50.718;7.328;2023-02-28T07:19:39;2.90;47.00
37456;DHT22;23316;50.718;7.328;2023-02-28T07:22:07;2.90;47.10
37456;DHT22;23316;50.718;7.328;2023-02-28T07:24:34;2.90;47.10
37456;DHT22;23316;50.718;7.328;2023-02-28T07:27:01;2.90;47.10
37456;DHT22;23316;50.718;7.328;2023-02-28T07:29:29;2.90;47.10
37456;DHT22;23316;50.718;7.328;2023-02-28T07:31:56;2.90;47.10
37456;DHT22;23316;50.718;7.328;2023-02-28T07:34:24;2.90;47.00
37456;DHT22;23316;50.718;7.328;2023-02-28T07:36:54;3.00;47.10
37456;DHT22;23316;50.718;7.328;2023-02-28T07:39:21;3.00;47.00
37456;DHT22;23316;50.718;7.328;2023-02-28T07:41:49;3.00;47.00
37456;DHT22;23316;50.718;7.328;2023-02-28T07:44:16;3.00;46.90
37456;DHT22;23316;50.718;7.328;2023-02-28T07:46:43;3.00;46.90
37456;DHT22;23316;50.718;7.328;2023-02-28T07:49:10;3.00;46.90
37456;DHT22;23316;50.718;7.328;2023-02-28T07:51:38;3.00;46.80
37456;DHT22;23316;50.718;7.328;2023-02-28T07:54:06;3.10;46.80
37456;DHT22;23316;50.718;7.328;2023-02-28T07:56:34;3.10;46.80
37456;DHT22;23316;50.718;7.328;2023-02-28T07:59:01;3.10;46.70
37456;DHT22;23316;50.718;7.328;2023-02-28T08:01:28;3.10;46.60
37456;DHT22;23316;50.718;7.328;2023-02-28T08:03:55;3.10;46.50
37456;DHT22;23316;50.718;7.328;2023-02-28T08:06:24;3.20;46.50
37456;DHT22;23316;50.718;7.328;2023-02-28T08:08:53;3.20;46.40
37456;DHT22;23316;50.718;7.328;2023-02-28T08:11:23;3.20;46.40
37456;DHT22;23316;50.718;7.328;2023-02-28T08:13:50;3.20;46.30
37456;DHT22;23316;50.718;7.328;2023-02-28T08:16:18;3.20;46.30
37456;DHT22;23316;50.718;7.328;2023-02-28T08:18:48;3.30;46.30
37456;DHT22;23316;50.718;7.328;2023-02-28T08:21:16;3.30;46.30
37456;DHT22;23316;50.718;7.328;2023-02-28T08:23:43;3.40;46.40
37456;DHT22;23316;50.718;7.328;2023-02-28T08:26:11;3.40;46.40
37456;DHT22;23316;50.718;7.328;2023-02-28T08:28:39;3.40;46.20
37456;DHT22;23316;50.718;7.328;2023-02-28T08:31:08;3.50;46.10
37456;DHT22;23316;50.718;7.328;2023-02-28T08:33:36;3.60;46.00
37456;DHT22;23316;50.718;7.328;2023-02-28T08:36:05;3.60;45.90
37456;DHT22;23316;50.718;7.328;2023-02-28T08:38:33;3.60;45.80
37456;DHT22;23316;50.718;7.328;2023-02-28T08:41:02;3.70;45.70
37456;DHT22;23316;50.718;7.328;2023-02-28T08:43:31;3.70;45.50
37456;DHT22;23316;50.718;7.328;2023-02-28T08:46:00;3.70;45.30
37456;DHT22;23316;50.718;7.328;2023-02-28T08:48:29;3.80;45.20
37456;DHT22;23316;50.718;7.328;2023-02-28T08:50:57;3.80;45.00
37456;DHT22;23316;50.718;7.328;2023-02-28T08:53:24;3.90;44.90
37456;DHT22;23316;50.718;7.328;2023-02-28T08:55:58;3.90;44.90
37456;DHT22;23316;50.718;7.328;2023-02-28T08:58:26;3.90;44.70
37456;DHT22;23316;50.718;7.328;2023-02-28T09:00:54;4.00;44.70
37456;DHT22;23316;50.718;7.328;2023-02-28T09:03:23;4.00;44.60
37456;DHT22;23316;50.718;7.328;2023-02-28T09:05:55;4.10;44.60
37456;DHT22;23316;50.718;7.328;2023-02-28T09:08:23;4.10;44.30
37456;DHT22;23316;50.718;7.328;2023-02-28T09:10:50;4.20;44.30
37456;DHT22;23316;50.718;7.328;2023-02-28T09:13:18;4.20;44.30
37456;DHT22;23316;50.718;7.328;2023-02-28T09:15:45;4.30;44.40
37456;DHT22;23316;50.718;7.328;2023-02-28T09:18:13;4.30;44.30
37456;DHT22;23316;50.718;7.328;2023-02-28T09:20:42;4.40;44.10
37456;DHT22;23316;50.718;7.328;2023-02-28T09:23:11;4.40;44.00
37456;DHT22;23316;50.718;7.328;2023-02-28T09:25:45;4.40;44.10
37456;DHT22;23316;50.718;7.328;2023-02-28T09:28:13;4.50;43.80
37456;DHT22;23316;50.718;7.328;2023-02-28T09:30:41;4.50;43.70
37456;DHT22;23316;50.718;7.328;2023-02-28T09:33:08;4.60;43.50
37456;DHT22;23316;50.718;7.328;2023-02-28T09:35:36;4.60;43.60
37456;DHT22;23316;50.718;7.328;2023-02-28T09:38:05;4.70;43.50
37456;DHT22;23316;50.718;7.328;2023-02-28T09:40:36;4.70;43.40
37456;DHT22;23316;50.718;7.328;2023-02-28T09:43:05;4.80;43.50
37456;DHT22;23316;50.718;7.328;2023-02-28T09:45:35;4.80;43.40
37456;DHT22;23316;50.718;7.328;2023-02-28T09:48:06;4.80;43.20
37456;DHT22;23316;50.718;7.328;2023-02-28T09:50:39;4.90;43.20
37456;DHT22;23316;50.718;7.328;2023-02-28T09:53:18;5.00;43.10
37456;DHT22;23316;50.718;7.328;2023-02-28T09:55:48;5.00;42.90
37456;DHT22;23316;50.718;7.328;2023-02-28T09:58:23;5.10;43.00
37456;DHT22;23316;50.718;7.328;2023-02-28T10:00:59;5.10;42.80
37456;DHT22;23316;50.718;7.328;2023-02-28T10:03:32;5.10;42.20
37456;DHT22;23316;50.718;7.328;2023-02-28T10:06:08;5.20;42.00
37456;DHT22;23316;50.718;7.328;2023-02-28T10:08:44;5.20;41.70
37456;DHT22;23316;50.718;7.328;2023-02-28T10:11:17;5.30;41.70
37456;DHT22;23316;50.718;7.328;2023-02-28T10:13:52;5.30;41.80
37456;DHT22;23316;50.718;7.328;2023-02-28T10:16:25;5.40;41.90
37456;DHT22;23316;50.718;7.328;2023-02-28T10:18:57;5.40;41.40
37456;DHT22;23316;50.718;7.328;2023-02-28T10:21:29;5.40;41.00
37456;DHT22;23316;50.718;7.328;2023-02-28T10:24:03;5.50;41.00
37456;DHT22;23316;50.718;7.328;2023-02-28T10:26:32;5.50;40.90
37456;DHT22;23316;50.718;7.328;2023-02-28T10:28:59;5.60;41.10
37456;DHT22;23316;50.718;7.328;2023-02-28T10:31:28;5.60;41.20
37456;DHT22;23316;50.718;7.328;2023-02-28T10:33:56;5.70;40.90
37456;DHT22;23316;50.718;7.328;2023-02-28T10:36:23;5.70;40.70
37456;DHT22;23316;50.718;7.328;2023-02-28T10:38:50;5.70;40.50
37456;DHT22;23316;50.718;7.328;2023-02-28T10:41:27;5.70;40.50
37456;DHT22;23316;50.718;7.328;2023-02-28T10:44:15;5.80;40.60
37456;DHT22;23316;50.718;7.328;2023-02-28T10:46:45;5.80;40.60
37456;DHT22;23316;50.718;7.328;2023-02-28T10:49:14;5.90;40.50
37456;DHT22;23316;50.718;7.328;2023-02-28T10:51:44;5.90;40.20
37456;DHT22;23316;50.718;7.328;2023-02-28T10:54:16;6.00;40.10
37456;DHT22;23316;50.718;7.328;2023-02-28T10:56:45;6.00;40.20
37456;DHT22;23316;50.718;7.328;2023-02-28T10:59:30;6.00;40.30
37456;DHT22;23316;50.718;7.328;2023-02-28T11:01:57;6.10;39.90
37456;DHT22;23316;50.718;7.328;2023-02-28T11:04:36;6.10;39.90
37456;DHT22;23316;50.718;7.328;2023-02-28T11:07:10;6.20;39.80
37456;DHT22;23316;50.718;7.328;2023-02-28T11:09:45;6.20;40.10
37456;DHT22;23316;50.718;7.328;2023-02-28T11:12:22;6.20;39.80
37456;DHT22;23316;50.718;7.328;2023-02-28T11:14:52;6.30;39.40
37456;DHT22;23316;50.718;7.328;2023-02-28T11:17:21;6.30;40.20
37456;DHT22;23316;50.718;7.328;2023-02-28T11:19:51;6.30;40.30
37456;DHT22;23316;50.718;7.328;2023-02-28T11:22:22;6.40;39.80
37456;DHT22;23316;50.718;7.328;2023-02-28T11:24:52;6.40;39.70
37456;DHT22;23316;50.718;7.328;2023-02-28T11:27:43;6.40;39.50
37456;DHT22;23316;50.718;7.328;2023-02-28T11:30:28;6.50;39.30
37456;DHT22;23316;50.718;7.328;2023-02-28T11:32:55;6.50;39.30
37456;DHT22;23316;50.718;7.328;2023-02-28T11:35:26;6.50;39.00
37456;DHT22;23316;50.718;7.328;2023-02-28T11:37:53;6.60;38.90
37456;DHT22;23316;50.718;7.328;2023-02-28T11:40:24;6.60;39.00
37456;DHT22;23316;50.718;7.328;2023-02-28T11:43:05;6.60;38.80
37456;DHT22;23316;50.718;7.328;2023-02-28T11:45:45;6.60;38.80
37456;DHT22;23316;50.718;7.328;2023-02-28T11:48:18;6.60;38.60
37456;DHT22;23316;50.718;7.328;2023-02-28T11:50:58;6.70;38.80
37456;DHT22;23316;50.718;7.328;2023-02-28T11:53:54;6.70;38.90
37456;DHT22;23316;50.718;7.328;2023-02-28T11:56:29;6.70;38.90
37456;DHT22;23316;50.718;7.328;2023-02-28T11:59:15;6.80;39.10
37456;DHT22;23316;50.718;7.328;2023-02-28T12:02:03;6.80;38.90
37456;DHT22;23316;50.718;7.328;2023-02-28T12:04:37;6.80;38.70
37456;DHT22;23316;50.718;7.328;2023-02-28T12:07:13;6.80;38.50
37456;DHT22;23316;50.718;7.328;2023-02-28T12:09:50;6.90;37.80
37456;DHT22;23316;50.718;7.328;2023-02-28T12:12:32;6.90;37.90
37456;DHT22;23316;50.718;7.328;2023-02-28T12:18:15;6.90;37.80
37456;DHT22;23316;50.718;7.328;2023-02-28T12:20:49;6.90;37.70
37456;DHT22;23316;50.718;7.328;2023-02-28T12:23:34;6.90;37.70
37456;DHT22;23316;50.718;7.328;2023-02-28T12:26:10;6.90;37.40
37456;DHT22;23316;50.718;7.328;2023-02-28T12:28:44;6.90;37.40
37456;DHT22;23316;50.718;7.328;2023-02-28T12:31:19;6.90;37.60
37456;DHT22;23316;50.718;7.328;2023-02-28T12:33:51;6.90;37.80
37456;DHT22;23316;50.718;7.328;2023-02-28T12:36:20;6.90;38.00
37456;DHT22;23316;50.718;7.328;2023-02-28T12:38:55;7.00;38.20
37456;DHT22;23316;50.718;7.328;2023-02-28T12:41:28;7.00;38.20
37456;DHT22;23316;50.718;7.328;2023-02-28T12:44:01;7.00;38.30
37456;DHT22;23316;50.718;7.328;2023-02-28T12:46:33;7.00;38.10
37456;DHT22;23316;50.718;7.328;2023-02-28T12:49:05;7.10;38.30
37456;DHT22;23316;50.718;7.328;2023-02-28T12:51:35;7.10;38.50
37456;DHT22;23316;50.718;7.328;2023-02-28T12:54:10;7.10;38.30
37456;DHT22;23316;50.718;7.328;2023-02-28T12:56:44;7.20;37.90
37456;DHT22;23316;50.718;7.328;2023-02-28T12:59:23;7.20;37.50
37456;DHT22;23316;50.718;7.328;2023-02-28T13:02:02;7.20;37.40
37456;DHT22;23316;50.718;7.328;2023-02-28T13:10:50;7.30;37.70
37456;DHT22;23316;50.718;7.328;2023-02-28T13:13:21;7.30;38.00
37456;DHT22;23316;50.718;7.328;2023-02-28T13:16:01;7.30;37.90
37456;DHT22;23316;50.718;7.328;2023-02-28T13:18:35;7.30;37.40
37456;DHT22;23316;50.718;7.328;2023-02-28T13:21:04;7.30;37.30
37456;DHT22;23316;50.718;7.328;2023-02-28T13:23:58;7.30;37.30
37456;DHT22;23316;50.718;7.328;2023-02-28T13:29:31;7.40;37.00
37456;DHT22;23316;50.718;7.328;2023-02-28T13:35:35;7.40;36.70
37456;DHT22;23316;50.718;7.328;2023-02-28T13:38:33;7.40;37.10
37456;DHT22;23316;50.718;7.328;2023-02-28T13:44:07;7.40;37.20
37456;DHT22;23316;50.718;7.328;2023-02-28T13:46:38;7.50;37.40
37456;DHT22;23316;50.718;7.328;2023-02-28T13:49:26;7.40;37.40
37456;DHT22;23316;50.718;7.328;2023-02-28T13:52:04;7.50;37.20
37456;DHT22;23316;50.718;7.328;2023-02-28T13:54:43;7.40;36.90
37456;DHT22;23316;50.718;7.328;2023-02-28T13:57:22;7.50;37.20
37456;DHT22;23316;50.718;7.328;2023-02-28T13:59:58;7.50;37.40
37456;DHT22;23316;50.718;7.328;2023-02-28T14:02:43;7.50;37.40
37456;DHT22;23316;50.718;7.328;2023-02-28T14:05:16;7.50;37.20
37456;DHT22;23316;50.718;7.328;2023-02-28T14:07:48;7.50;37.40
37456;DHT22;23316;50.718;7.328;2023-02-28T14:10:24;7.60;37.30
37456;DHT22;23316;50.718;7.328;2023-02-28T14:13:10;7.60;36.80
37456;DHT22;23316;50.718;7.328;2023-02-28T14:15:43;7.60;36.50
37456;DHT22;23316;50.718;7.328;2023-02-28T14:18:17;7.60;36.50
37456;DHT22;23316;50.718;7.328;2023-02-28T14:20:47;7.60;36.40
37456;DHT22;23316;50.718;7.328;2023-02-28T14:23:26;7.60;36.50
37456;DHT22;23316;50.718;7.328;2023-02-28T14:26:03;7.60;36.50
37456;DHT22;23316;50.718;7.328;2023-02-28T14:28:52;7.60;36.60
37456;DHT22;23316;50.718;7.328;2023-02-28T14:31:25;7.60;36.80
37456;DHT22;23316;50.718;7.328;2023-02-28T14:34:10;7.60;37.10
37456;DHT22;23316;50.718;7.328;2023-02-28T14:36:41;7.60;37.00
37456;DHT22;23316;50.718;7.328;2023-02-28T14:39:13;7.60;37.30
37456;DHT22;23316;50.718;7.328;2023-02-28T14:41:43;7.60;37.40
37456;DHT22;23316;50.718;7.328;2023-02-28T14:44:16;7.70;37.30
37456;DHT22;23316;50.718;7.328;2023-02-28T14:46:46;7.70;37.10
37456;DHT22;23316;50.718;7.328;2023-02-28T14:49:18;7.70;37.10
37456;DHT22;23316;50.718;7.328;2023-02-28T14:51:47;7.70;37.00
37456;DHT22;23316;50.718;7.328;2023-02-28T14:54:20;7.70;37.30
37456;DHT22;23316;50.718;7.328;2023-02-28T14:56:50;7.70;37.40
37456;DHT22;23316;50.718;7.328;2023-02-28T14:59:26;7.70;37.40
37456;DHT22;23316;50.718;7.328;2023-02-28T15:02:18;7.70;37.30
37456;DHT22;23316;50.718;7.328;2023-02-28T15:04:53;7.70;37.10
37456;DHT22;23316;50.718;7.328;2023-02-28T15:07:20;7.70;37.00
37456;DHT22;23316;50.718;7.328;2023-02-28T15:10:09;7.70;36.90
37456;DHT22;23316;50.718;7.328;2023-02-28T15:12:37;7.80;36.90
37456;DHT22;23316;50.718;7.328;2023-02-28T15:15:13;7.80;37.20
37456;DHT22;23316;50.718;7.328;2023-02-28T15:17:43;7.70;37.30
37456;DHT22;23316;50.718;7.328;2023-02-28T15:20:14;7.80;37.30
37456;DHT22;23316;50.718;7.328;2023-02-28T15:22:42;7.80;37.20
37456;DHT22;23316;50.718;7.328;2023-02-28T15:25:14;7.80;37.00
37456;DHT22;23316;50.718;7.328;2023-02-28T15:27:45;7.80;37.50
37456;DHT22;23316;50.718;7.328;2023-02-28T15:30:17;7.80;37.20
37456;DHT22;23316;50.718;7.328;2023-02-28T15:32:45;7.90;37.10
37456;DHT22;23316;50.718;7.328;2023-02-28T15:35:30;7.80;37.10
37456;DHT22;23316;50.718;7.328;2023-02-28T15:38:00;7.90;37.10
37456;DHT22;23316;50.718;7.328;2023-02-28T15:40:30;7.80;37.10
37456;DHT22;23316;50.718;7.328;2023-02-28T15:43:00;7.80;37.20
37456;DHT22;23316;50.718;7.328;2023-02-28T15:45:36;7.90;37.30
37456;DHT22;23316;50.718;7.328;2023-02-28T15:48:17;7.90;37.30
37456;DHT22;23316;50.718;7.328;2023-02-28T15:50:48;7.90;37.40
37456;DHT22;23316;50.718;7.328;2023-02-28T15:53:19;7.90;37.50
37456;DHT22;23316;50.718;7.328;2023-02-28T15:55:55;7.90;37.50
37456;DHT22;23316;50.718;7.328;2023-02-28T15:58:24;7.90;37.60
37456;DHT22;23316;50.718;7.328;2023-02-28T16:01:08;7.90;37.70
37456;DHT22;23316;50.718;7.328;2023-02-28T16:03:44;7.90;37.40
37456;DHT22;23316;50.718;7.328;2023-02-28T16:06:32;7.90;37.40
37456;DHT22;23316;50.718;7.328;2023-02-28T16:09:00;7.90;37.30
37456;DHT22;23316;50.718;7.328;2023-02-28T16:11:28;7.90;37.40
37456;DHT22;23316;50.718;7.328;2023-02-28T16:13:57;7.90;37.40
37456;DHT22;23316;50.718;7.328;2023-02-28T16:16:26;7.90;37.30
37456;DHT22;23316;50.718;7.328;2023-02-28T16:18:53;7.90;37.40
37456;DHT22;23316;50.718;7.328;2023-02-28T16:21:21;7.90;37.40
37456;DHT22;23316;50.718;7.328;2023-02-28T16:23:48;7.90;37.40
37456;DHT22;23316;50.718;7.328;2023-02-28T16:26:21;7.90;37.40
37456;DHT22;23316;50.718;7.328;2023-02-28T16:28:51;7.90;37.40
37456;DHT22;23316;50.718;7.328;2023-02-28T16:31:18;7.90;37.30
37456;DHT22;23316;50.718;7.328;2023-02-28T16:33:46;7.90;37.30
37456;DHT22;23316;50.718;7.328;2023-02-28T16:36:16;7.90;37.30
37456;DHT22;23316;50.718;7.328;2023-02-28T16:38:43;7.90;37.30
37456;DHT22;23316;50.718;7.328;2023-02-28T16:41:13;7.90;37.30